Time;durP1;ratioP1;P1;durP2;ratioP2;P2;SDS_P1;SDS_P2;PMS_P1;PMS_P2;Temp;Humidity;BMP_temperature;BMP_pressure;BME280_temperature;BME280_humidity;BME280_pressure;Samples;Min_cycle;Max_cycle;Signal;HPM_P1;HPM_P2
2023/09/16 00:01:28;;;;;;;5.90;4.10;;;16.40;99.90;;;;;;5072281;28;20024;-52
2023/09/16 00:03:54;;;;;;;6.05;3.83;;;16.40;99.90;;;;;;5070817;28;20066;-52
2023/09/16 00:06:20;;;;;;;6.00;4.22;;;16.40;99.90;;;;;;5072511;28;20033;-52
2023/09/16 00:08:46;;;;;;;12.32;4.15;;;16.40;99.90;;;;;;5065158;28;20545;-54
2023/09/16 00:11:12;;;;;;;6.85;3.92;;;16.30;99.90;;;;;;5052618;28;20094;-52
2023/09/16 00:13:38;;;;;;;6.68;4.05;;;16.30;99.90;;;;;;5071729;28;20024;-52
2023/09/16 00:16:05;;;;;;;6.22;4.57;;;16.30;99.90;;;;;;5070858;28;20093;-54
2023/09/16 00:18:31;;;;;;;6.40;4.22;;;16.30;99.90;;;;;;5071685;28;20062;-54
2023/09/16 00:20:56;;;;;;;8.93;3.83;;;16.20;99.90;;;;;;5066786;28;20023;-52
2023/09/16 00:23:22;;;;;;;4.68;3.60;;;16.20;99.90;;;;;;5070910;28;20024;-53
2023/09/16 00:25:48;;;;;;;7.55;3.97;;;16.20;99.90;;;;;;5071853;28;20032;-52
2023/09/16 00:28:14;;;;;;;8.73;3.92;;;16.10;99.90;;;;;;5069140;28;20017;-54
2023/09/16 00:30:44;;;;;;;7.22;4.20;;;16.00;99.90;;;;;;5070535;28;20038;-52
2023/09/16 00:33:10;;;;;;;9.52;4.78;;;16.00;99.90;;;;;;5070425;28;20033;-56
2023/09/16 00:35:36;;;;;;;6.45;4.00;;;15.90;99.90;;;;;;5070000;28;20043;-52
2023/09/16 00:38:02;;;;;;;6.82;4.50;;;15.90;99.90;;;;;;5070510;28;20023;-53
2023/09/16 00:40:28;;;;;;;5.80;4.30;;;15.90;99.90;;;;;;5072506;28;20083;-52
2023/09/16 00:42:53;;;;;;;8.30;3.85;;;15.80;99.90;;;;;;5070604;28;20060;-50
2023/09/16 00:45:19;;;;;;;5.45;3.70;;;15.80;99.90;;;;;;5071780;28;20032;-51
2023/09/16 00:47:45;;;;;;;7.20;4.32;;;15.80;99.90;;;;;;5072429;28;20024;-49
2023/09/16 00:50:17;;;;;;;8.07;4.43;;;15.70;99.90;;;;;;5071558;28;20063;-49
2023/09/16 00:52:59;;;;;;;6.10;4.47;;;15.60;99.90;;;;;;5072019;28;20040;-53
2023/09/16 00:55:26;;;;;;;8.35;4.53;;;15.60;99.90;;;;;;5069189;28;20025;-52
2023/09/16 00:57:54;;;;;;;10.30;5.13;;;15.60;99.90;;;;;;5071857;28;20086;-52
2023/09/16 01:00:23;;;;;;;7.20;4.38;;;15.60;99.90;;;;;;5075924;28;20017;-42
2023/09/16 01:02:49;;;;;;;7.45;4.15;;;15.60;99.90;;;;;;5071515;28;20473;-39
2023/09/16 01:05:15;;;;;;;6.93;3.90;;;15.70;99.90;;;;;;5068246;28;20032;-38
2023/09/16 01:07:41;;;;;;;6.60;3.65;;;15.70;99.90;;;;;;5070078;28;20544;-44
2023/09/16 01:10:11;;;;;;;4.70;4.13;;;15.70;99.90;;;;;;5060133;28;20020;-39
2023/09/16 01:12:38;;;;;;;7.38;4.68;;;15.70;99.90;;;;;;5069669;28;20029;-43
2023/09/16 01:15:06;;;;;;;6.40;3.80;;;15.70;99.90;;;;;;5069553;28;20416;-41
2023/09/16 01:17:42;;;;;;;4.75;3.70;;;15.70;99.90;;;;;;5070684;28;20603;-42
2023/09/16 01:20:15;;;;;;;6.38;3.70;;;15.70;99.90;;;;;;5068800;28;20017;-40
2023/09/16 01:22:45;;;;;;;7.55;4.05;;;15.60;99.90;;;;;;5073134;28;20028;-41
2023/09/16 01:25:12;;;;;;;6.88;4.53;;;15.60;99.90;;;;;;5074219;28;20024;-39
2023/09/16 01:27:38;;;;;;;5.68;4.38;;;15.60;99.90;;;;;;5067280;28;20115;-40
2023/09/16 01:30:05;;;;;;;4.82;4.13;;;15.50;99.90;;;;;;5069765;28;20143;-39
2023/09/16 01:33:05;;;;;;;6.13;4.45;;;15.40;99.90;;;;;;5062365;28;20024;-39
2023/09/16 01:35:37;;;;;;;9.20;4.63;;;15.40;99.90;;;;;;5055877;28;20405;-42
2023/09/16 01:38:05;;;;;;;6.50;4.20;;;15.40;99.90;;;;;;5055452;28;20025;-42
2023/09/16 01:40:32;;;;;;;4.25;3.85;;;15.30;99.90;;;;;;5057297;28;20033;-40
2023/09/16 01:42:58;;;;;;;6.85;4.57;;;15.40;99.90;;;;;;5072780;28;20096;-42
2023/09/16 01:45:24;;;;;;;9.15;4.78;;;15.40;99.90;;;;;;5066836;28;20474;-40
2023/09/16 01:47:50;;;;;;;4.88;4.25;;;15.40;99.90;;;;;;5059354;28;20028;-39
2023/09/16 01:50:15;;;;;;;4.57;4.07;;;15.40;99.90;;;;;;5072238;28;20039;-42
2023/09/16 01:52:41;;;;;;;5.03;3.78;;;15.40;99.90;;;;;;5064800;28;20028;-41
2023/09/16 01:55:07;;;;;;;6.82;4.43;;;15.40;99.90;;;;;;5075247;28;20431;-40
2023/09/16 01:57:33;;;;;;;7.60;4.43;;;15.40;99.90;;;;;;5071505;28;20404;-41
2023/09/16 01:59:59;;;;;;;8.32;3.80;;;15.30;99.90;;;;;;5068648;28;20024;-39
2023/09/16 02:02:24;;;;;;;4.95;3.72;;;15.30;99.90;;;;;;5073688;28;20020;-39
2023/09/16 02:04:50;;;;;;;7.97;4.00;;;15.30;99.90;;;;;;5074178;28;20524;-42
2023/09/16 02:07:15;;;;;;;4.32;3.65;;;15.30;99.90;;;;;;5064551;28;20078;-40
2023/09/16 02:09:42;;;;;;;4.13;3.65;;;15.20;99.90;;;;;;5072621;28;20075;-41
2023/09/16 02:12:08;;;;;;;8.13;4.55;;;15.20;99.90;;;;;;5063470;28;20489;-39
2023/09/16 02:14:38;;;;;;;6.72;3.67;;;15.20;99.90;;;;;;5074833;28;20070;-41
2023/09/16 02:17:07;;;;;;;5.72;4.40;;;15.20;99.90;;;;;;5073181;28;20032;-44
2023/09/16 02:19:33;;;;;;;6.32;4.40;;;15.20;99.90;;;;;;5072210;28;20024;-40
2023/09/16 02:21:58;;;;;;;8.07;4.03;;;15.20;99.90;;;;;;5072482;28;20481;-53
2023/09/16 02:24:24;;;;;;;6.15;4.07;;;15.20;99.90;;;;;;5061508;28;20432;-52
2023/09/16 02:26:49;;;;;;;7.05;3.97;;;15.10;99.90;;;;;;5071248;28;20029;-55
2023/09/16 02:29:15;;;;;;;7.88;4.97;;;15.10;99.90;;;;;;5073796;28;20159;-53
2023/09/16 02:31:41;;;;;;;7.20;4.30;;;15.20;99.90;;;;;;5072766;28;20028;-39
2023/09/16 02:34:06;;;;;;;14.50;4.93;;;15.10;99.90;;;;;;5074466;28;20537;-39
2023/09/16 02:36:32;;;;;;;6.95;4.50;;;15.10;99.90;;;;;;5071830;28;20496;-40
2023/09/16 02:38:57;;;;;;;5.75;4.10;;;15.10;99.90;;;;;;5072509;28;20032;-39
2023/09/16 02:41:23;;;;;;;8.05;4.47;;;15.10;99.90;;;;;;5072466;28;20493;-41
2023/09/16 02:43:49;;;;;;;5.38;4.40;;;15.10;99.90;;;;;;5072898;28;20023;-41
2023/09/16 02:46:14;;;;;;;5.55;4.32;;;15.10;99.90;;;;;;5071866;28;20401;-42
2023/09/16 02:48:40;;;;;;;5.43;4.18;;;15.10;99.90;;;;;;5074444;28;20086;-38
2023/09/16 02:51:09;;;;;;;10.75;4.60;;;15.10;99.90;;;;;;5071655;28;20029;-37
2023/09/16 02:53:35;;;;;;;7.40;4.90;;;15.10;99.90;;;;;;5072858;28;20522;-42
2023/09/16 02:56:01;;;;;;;8.43;4.90;;;15.10;99.90;;;;;;5071903;28;20029;-39
2023/09/16 02:58:28;;;;;;;5.57;4.57;;;15.00;99.90;;;;;;5072328;28;20021;-39
2023/09/16 03:00:54;;;;;;;5.82;4.18;;;15.00;99.90;;;;;;5070485;28;20024;-44
2023/09/16 03:03:19;;;;;;;6.28;4.38;;;15.00;99.90;;;;;;5074085;28;20078;-40
2023/09/16 03:05:45;;;;;;;7.05;3.97;;;15.00;99.90;;;;;;5073988;28;20027;-39
2023/09/16 03:08:14;;;;;;;7.22;4.22;;;15.00;99.90;;;;;;5073730;28;20443;-39
2023/09/16 03:10:40;;;;;;;7.60;4.50;;;15.10;99.90;;;;;;5070981;28;20064;-39
2023/09/16 03:13:06;;;;;;;5.70;4.15;;;15.10;99.90;;;;;;5072410;28;20031;-39
2023/09/16 03:15:36;;;;;;;7.15;5.32;;;15.00;99.90;;;;;;5071726;28;20461;-39
2023/09/16 03:18:02;;;;;;;7.38;5.13;;;14.90;99.90;;;;;;5073340;28;20111;-37
2023/09/16 03:20:27;;;;;;;7.93;4.97;;;14.90;99.90;;;;;;5073793;28;20155;-38
2023/09/16 03:22:53;;;;;;;7.32;4.88;;;14.90;99.90;;;;;;5073446;28;20154;-41
2023/09/16 03:25:18;;;;;;;9.23;5.35;;;14.80;99.90;;;;;;5071308;28;20025;-39
2023/09/16 03:27:44;;;;;;;7.78;5.03;;;14.80;99.90;;;;;;5068933;28;20485;-52
2023/09/16 03:30:10;;;;;;;8.95;4.80;;;14.90;99.90;;;;;;5069376;28;20032;-46
2023/09/16 03:32:39;;;;;;;7.68;4.00;;;14.90;99.90;;;;;;5071500;28;20095;-52
2023/09/16 03:35:05;;;;;;;5.72;3.92;;;14.90;99.90;;;;;;5070555;28;20139;-52
2023/09/16 03:37:31;;;;;;;5.68;4.60;;;14.90;99.90;;;;;;5062037;28;20024;-51
2023/09/16 03:39:57;;;;;;;6.53;4.85;;;14.90;99.90;;;;;;5072502;28;20020;-52
2023/09/16 03:42:22;;;;;;;7.57;4.55;;;14.90;99.90;;;;;;5072938;28;20074;-48
2023/09/16 03:44:48;;;;;;;8.52;4.65;;;14.90;99.90;;;;;;5071027;28;20029;-52
2023/09/16 03:47:13;;;;;;;14.25;5.30;;;14.90;99.90;;;;;;5070205;28;20362;-52
2023/09/16 03:49:39;;;;;;;7.95;4.53;;;14.90;99.90;;;;;;5072988;28;20130;-52
2023/09/16 03:52:05;;;;;;;10.07;4.63;;;14.80;99.90;;;;;;5071044;28;20020;-52
2023/09/16 03:54:31;;;;;;;6.60;4.60;;;14.80;99.90;;;;;;5071016;28;20083;-51
2023/09/16 03:56:56;;;;;;;6.97;5.20;;;14.80;99.90;;;;;;5072853;28;20496;-49
2023/09/16 03:59:22;;;;;;;6.55;4.65;;;14.80;99.90;;;;;;5072940;28;20126;-51
2023/09/16 04:01:48;;;;;;;6.72;4.70;;;14.70;99.90;;;;;;5071146;28;20556;-52
2023/09/16 04:04:13;;;;;;;5.75;4.03;;;14.70;99.90;;;;;;5072814;28;20504;-50
2023/09/16 04:06:39;;;;;;;5.30;3.95;;;14.70;99.90;;;;;;5072811;28;20035;-51
2023/09/16 04:09:04;;;;;;;10.52;4.60;;;14.70;99.90;;;;;;5073055;28;20028;-52
2023/09/16 04:11:30;;;;;;;5.90;4.05;;;14.70;99.90;;;;;;5070845;28;20062;-52
2023/09/16 04:13:56;;;;;;;7.40;3.67;;;14.60;99.90;;;;;;5071546;28;20032;-49
2023/09/16 04:16:21;;;;;;;6.07;5.05;;;14.60;99.90;;;;;;5068492;28;20029;-51
2023/09/16 04:18:47;;;;;;;6.55;4.60;;;14.60;99.90;;;;;;5072555;28;20473;-52
2023/09/16 04:21:12;;;;;;;7.00;5.00;;;14.60;99.90;;;;;;5072228;28;20052;-51
2023/09/16 04:23:38;;;;;;;8.68;4.97;;;14.60;99.90;;;;;;5072646;28;20028;-52
2023/09/16 04:26:05;;;;;;;6.55;4.60;;;14.50;99.90;;;;;;5071911;28;20410;-51
2023/09/16 04:28:30;;;;;;;7.75;5.18;;;14.60;99.90;;;;;;5072279;28;20142;-54
2023/09/16 04:30:58;;;;;;;7.45;5.70;;;14.50;99.90;;;;;;5074962;28;20025;-49
2023/09/16 04:33:23;;;;;;;9.77;5.90;;;14.50;99.90;;;;;;5076747;28;20470;-50
2023/09/16 04:35:51;;;;;;;6.55;4.78;;;14.50;99.90;;;;;;5076825;28;20071;-51
2023/09/16 04:38:18;;;;;;;8.23;5.50;;;14.50;99.90;;;;;;5075744;28;20554;-50
2023/09/16 04:40:44;;;;;;;13.77;5.07;;;14.50;99.90;;;;;;5075095;28;20124;-50
2023/09/16 04:43:13;;;;;;;7.70;5.95;;;14.40;99.90;;;;;;5076800;28;20436;-54
2023/09/16 04:45:44;;;;;;;6.65;4.65;;;14.40;99.90;;;;;;5074736;28;20051;-52
2023/09/16 04:48:13;;;;;;;6.10;4.72;;;14.40;99.90;;;;;;5074828;28;20063;-48
2023/09/16 04:50:43;;;;;;;8.02;5.00;;;14.40;99.90;;;;;;5076933;28;20024;-52
2023/09/16 04:53:09;;;;;;;7.38;5.18;;;14.40;99.90;;;;;;5076212;28;20036;-52
2023/09/16 04:55:36;;;;;;;9.68;4.78;;;14.40;99.90;;;;;;5073965;28;20082;-51
2023/09/16 04:58:02;;;;;;;7.57;5.47;;;14.30;99.90;;;;;;5076511;28;20033;-52
2023/09/16 05:00:33;;;;;;;7.35;5.70;;;14.40;99.90;;;;;;5076108;28;20023;-52
2023/09/16 05:03:02;;;;;;;7.38;4.95;;;14.40;99.90;;;;;;5068860;28;20174;-52
2023/09/16 05:05:28;;;;;;;9.55;5.15;;;14.30;99.90;;;;;;5073052;28;20024;-52
2023/09/16 05:07:53;;;;;;;7.28;5.05;;;14.30;99.90;;;;;;5074308;28;20408;-52
2023/09/16 05:10:19;;;;;;;7.10;4.72;;;14.20;99.90;;;;;;5073419;28;20024;-48
2023/09/16 05:12:44;;;;;;;7.32;5.30;;;14.30;99.90;;;;;;5074461;28;20110;-51
2023/09/16 05:15:10;;;;;;;8.27;4.80;;;14.30;99.90;;;;;;5070483;28;20436;-55
2023/09/16 05:17:37;;;;;;;6.85;5.35;;;14.30;99.90;;;;;;5072888;28;20031;-52
2023/09/16 05:20:04;;;;;;;10.18;5.97;;;14.30;99.90;;;;;;5072979;28;20484;-49
2023/09/16 05:22:29;;;;;;;9.50;6.22;;;14.20;99.90;;;;;;5073762;28;20021;-54
2023/09/16 05:24:55;;;;;;;13.18;7.10;;;14.30;99.90;;;;;;5074919;28;20027;-51
2023/09/16 05:27:22;;;;;;;10.65;6.40;;;14.20;99.90;;;;;;5072483;28;20404;-54
2023/09/16 05:29:55;;;;;;;7.43;3.95;;;14.20;99.90;;;;;;5073748;28;20112;-53
2023/09/16 05:32:21;;;;;;;9.35;6.15;;;14.20;99.90;;;;;;5066991;28;20525;-53
2023/09/16 05:34:47;;;;;;;9.80;6.00;;;14.20;99.90;;;;;;5073319;28;20120;-53
2023/09/16 05:37:13;;;;;;;11.55;6.72;;;14.30;99.90;;;;;;5073874;28;20548;-54
2023/09/16 05:39:39;;;;;;;12.85;6.43;;;14.20;99.90;;;;;;5073794;28;20021;-49
2023/09/16 05:42:05;;;;;;;7.75;5.45;;;14.20;99.90;;;;;;5073377;28;20040;-52
2023/09/16 05:44:30;;;;;;;9.27;5.55;;;14.20;99.90;;;;;;5073440;28;20031;-54
2023/09/16 05:46:56;;;;;;;9.10;6.20;;;14.30;99.90;;;;;;5070847;28;20473;-54
2023/09/16 05:49:22;;;;;;;9.77;6.03;;;14.40;99.90;;;;;;5073515;28;20029;-53
2023/09/16 05:51:47;;;;;;;10.40;6.75;;;14.40;99.90;;;;;;5075191;28;20579;-54
2023/09/16 05:54:32;;;;;;;11.20;7.32;;;14.40;99.90;;;;;;5075500;28;20058;-53
2023/09/16 05:56:58;;;;;;;11.35;6.75;;;14.40;99.90;;;;;;5074768;28;20067;-51
2023/09/16 05:59:24;;;;;;;9.80;6.30;;;14.50;99.90;;;;;;5075189;28;20389;-54
2023/09/16 06:01:49;;;;;;;13.45;8.13;;;14.50;99.90;;;;;;5072774;28;20039;-54
2023/09/16 06:04:15;;;;;;;9.52;6.22;;;14.60;99.90;;;;;;5074951;28;20025;-53
2023/09/16 06:06:40;;;;;;;11.52;7.13;;;14.60;99.90;;;;;;5073744;28;20035;-52
2023/09/16 06:09:06;;;;;;;8.82;6.50;;;14.60;99.90;;;;;;5071729;28;20066;-51
2023/09/16 06:11:32;;;;;;;8.88;6.57;;;14.70;99.90;;;;;;5074214;28;20029;-53
2023/09/16 06:13:57;;;;;;;8.85;6.43;;;14.70;99.90;;;;;;5074853;28;20039;-53
2023/09/16 06:16:23;;;;;;;10.45;6.55;;;14.80;99.90;;;;;;5074093;28;20103;-53
2023/09/16 06:18:49;;;;;;;10.00;7.13;;;14.80;99.90;;;;;;5074693;28;20025;-54
2023/09/16 06:21:17;;;;;;;8.80;6.43;;;14.90;99.90;;;;;;5072256;28;20046;-54
2023/09/16 06:23:45;;;;;;;15.15;6.75;;;14.90;99.90;;;;;;5073487;28;20095;-53
2023/09/16 06:26:11;;;;;;;12.20;7.50;;;15.00;99.90;;;;;;5073014;28;20029;-53
2023/09/16 06:28:41;;;;;;;10.27;6.75;;;15.00;99.90;;;;;;5072458;28;20496;-52
2023/09/16 06:31:07;;;;;;;13.27;7.53;;;15.10;99.90;;;;;;5074755;28;20017;-51
2023/09/16 06:33:32;;;;;;;11.57;7.32;;;15.10;99.90;;;;;;5074512;28;20359;-39
2023/09/16 06:35:58;;;;;;;10.35;6.85;;;15.20;99.90;;;;;;5072309;28;20027;-39
2023/09/16 06:38:24;;;;;;;8.90;6.78;;;15.20;99.90;;;;;;5054342;28;20048;-38
2023/09/16 06:40:49;;;;;;;12.50;6.50;;;15.30;99.90;;;;;;5057633;28;20473;-41
2023/09/16 06:43:15;;;;;;;13.95;7.53;;;15.30;99.90;;;;;;5074303;28;20050;-40
2023/09/16 06:45:41;;;;;;;14.40;8.57;;;15.40;99.90;;;;;;5074251;28;20020;-44
2023/09/16 06:48:08;;;;;;;11.73;7.15;;;15.50;99.90;;;;;;5074062;28;20078;-42
2023/09/16 06:50:34;;;;;;;11.57;7.07;;;15.50;99.90;;;;;;5071523;28;20509;-42
2023/09/16 06:52:59;;;;;;;11.95;6.88;;;15.60;99.90;;;;;;5065903;28;20099;-39
2023/09/16 06:55:26;;;;;;;14.82;7.18;;;15.70;99.90;;;;;;5074087;28;20032;-38
2023/09/16 06:57:51;;;;;;;13.30;7.03;;;15.80;99.90;;;;;;5073865;28;20488;-40
2023/09/16 07:00:17;;;;;;;15.70;7.07;;;15.90;99.90;;;;;;5073962;28;20056;-39
2023/09/16 07:02:43;;;;;;;12.48;6.80;;;16.00;99.90;;;;;;5073864;28;20075;-40
2023/09/16 07:05:10;;;;;;;13.52;8.40;;;16.10;99.90;;;;;;5073825;28;20492;-39
2023/09/16 07:07:35;;;;;;;12.60;6.93;;;16.20;99.90;;;;;;5072878;28;20025;-38
2023/09/16 07:10:01;;;;;;;9.07;5.65;;;16.20;99.90;;;;;;5073462;28;20029;-40
2023/09/16 07:12:27;;;;;;;11.98;7.40;;;16.40;99.90;;;;;;5073719;28;20025;-38
2023/09/16 07:14:52;;;;;;;11.80;6.82;;;16.50;99.90;;;;;;5073616;28;20025;-40
2023/09/16 07:17:18;;;;;;;11.48;7.65;;;16.60;99.90;;;;;;5073545;28;20515;-44
2023/09/16 07:19:44;;;;;;;14.98;8.75;;;16.70;99.90;;;;;;5073541;28;20044;-40
2023/09/16 07:22:09;;;;;;;11.52;7.57;;;16.70;99.90;;;;;;5073496;28;20427;-40
2023/09/16 07:24:37;;;;;;;7.57;5.72;;;16.80;99.90;;;;;;5059414;28;20074;-41
2023/09/16 07:27:03;;;;;;;12.63;7.55;;;17.00;99.90;;;;;;5072723;28;20025;-41
2023/09/16 07:29:29;;;;;;;15.27;7.28;;;17.10;99.90;;;;;;5073195;28;20552;-39
2023/09/16 07:31:54;;;;;;;14.10;8.05;;;17.20;99.90;;;;;;5073214;28;20107;-39
2023/09/16 07:34:22;;;;;;;14.15;7.53;;;17.30;99.90;;;;;;5073343;28;20021;-40
2023/09/16 07:36:48;;;;;;;;;;;17.40;99.90;;;;;;5073625;28;20049;-41
2023/09/16 07:39:15;;;;;;;13.85;8.00;;;17.50;99.90;;;;;;5073485;28;19920;-42
2023/09/16 07:41:41;;;;;;;10.20;6.97;;;17.50;99.90;;;;;;5071460;28;20032;-54
2023/09/16 07:44:07;;;;;;;11.25;6.85;;;17.60;99.90;;;;;;5072792;28;20027;-53
2023/09/16 07:46:34;;;;;;;11.65;7.18;;;17.80;99.90;;;;;;5066577;28;20103;-54
2023/09/16 07:49:00;;;;;;;10.97;7.33;;;17.90;99.90;;;;;;5070087;28;20465;-53
2023/09/16 07:51:25;;;;;;;9.52;6.90;;;18.00;99.90;;;;;;5071675;28;20099;-54
2023/09/16 07:53:51;;;;;;;11.60;7.18;;;18.20;99.90;;;;;;5070554;28;20032;-54
2023/09/16 07:56:18;;;;;;;14.05;7.20;;;18.30;99.90;;;;;;5070716;28;20032;-52
2023/09/16 07:58:44;;;;;;;9.43;6.47;;;18.40;99.90;;;;;;5069465;28;20500;-54
2023/09/16 08:01:09;;;;;;;11.80;6.85;;;18.50;99.90;;;;;;5072202;28;20024;-40
2023/09/16 08:03:37;;;;;;;9.63;5.90;;;18.60;99.90;;;;;;5069351;28;20107;-41
2023/09/16 08:06:06;;;;;;;;;;;18.80;99.90;;;;;;5064287;28;20472;-39
2023/09/16 08:08:32;;;;;;;10.95;6.47;;;18.90;99.90;;;;;;5069545;28;20410;-39
2023/09/16 08:10:57;;;;;;;14.30;5.55;;;19.10;99.90;;;;;;5069270;28;20032;-39
2023/09/16 08:13:23;;;;;;;11.27;6.35;;;19.20;99.90;;;;;;5071250;28;20380;-45
2023/09/16 08:15:49;;;;;;;9.07;5.90;;;19.30;99.90;;;;;;5065543;28;20044;-40
2023/09/16 08:18:15;;;;;;;8.07;5.70;;;19.50;99.90;;;;;;5069764;28;20021;-43
2023/09/16 08:20:42;;;;;;;12.88;6.05;;;19.50;99.90;;;;;;5064358;28;20047;-41
2023/09/16 08:23:09;;;;;;;8.87;5.93;;;19.70;99.90;;;;;;5069813;28;20021;-39
2023/09/16 08:25:35;;;;;;;14.65;6.03;;;19.80;99.90;;;;;;5070808;28;20797;-42
2023/09/16 08:28:00;;;;;;;9.13;5.55;;;19.90;99.90;;;;;;5069976;28;20033;-45
2023/09/16 08:30:26;;;;;;;9.35;5.18;;;20.10;99.90;;;;;;5066325;28;20024;-39
2023/09/16 08:32:52;;;;;;;8.52;4.95;;;20.20;99.90;;;;;;5065103;28;20029;-42
2023/09/16 08:35:17;;;;;;;7.20;4.70;;;20.40;99.90;;;;;;5065823;28;20035;-40
2023/09/16 08:37:43;;;;;;;9.38;4.70;;;20.50;99.90;;;;;;5063340;28;20038;-39
2023/09/16 08:40:09;;;;;;;7.30;5.00;;;20.60;99.90;;;;;;5066969;28;20056;-39
2023/09/16 08:42:41;;;;;;;5.70;4.68;;;20.70;99.90;;;;;;5068504;28;20048;-39
2023/09/16 08:45:14;;;;;;;5.65;4.45;;;20.80;99.90;;;;;;5067307;28;20483;-40
2023/09/16 08:47:52;;;;;;;11.10;4.80;;;21.00;99.90;;;;;;5065035;28;20716;-41
2023/09/16 08:50:21;;;;;;;10.20;4.60;;;21.10;99.90;;;;;;5068722;28;20023;-41
2023/09/16 08:52:49;;;;;;;4.72;3.75;;;21.20;99.90;;;;;;5070846;28;20548;-40
2023/09/16 08:55:16;;;;;;;9.50;4.95;;;21.40;99.90;;;;;;5067168;28;20036;-42
2023/09/16 08:57:47;;;;;;;6.45;4.38;;;21.60;99.90;;;;;;5066481;28;20033;-40
2023/09/16 09:00:14;;;;;;;7.60;4.70;;;21.70;99.90;;;;;;5071519;28;20534;-39
2023/09/16 09:02:40;;;;;;;7.97;4.75;;;21.80;99.90;;;;;;5072314;28;20504;-40
2023/09/16 09:05:07;;;;;;;7.50;3.80;;;21.80;99.90;;;;;;5069228;28;20036;-40
2023/09/16 09:07:37;;;;;;;7.95;3.55;;;21.90;99.90;;;;;;5069558;28;20163;-40
2023/09/16 09:10:04;;;;;;;5.22;3.35;;;22.10;99.90;;;;;;5070467;28;20501;-41
2023/09/16 09:12:32;;;;;;;5.72;3.38;;;22.40;99.90;;;;;;5071306;28;20096;-40
2023/09/16 09:15:00;;;;;;;8.13;3.95;;;22.60;99.90;;;;;;5074813;28;20032;-40
2023/09/16 09:17:27;;;;;;;7.18;3.95;;;22.60;99.90;;;;;;5072406;28;20021;-46
2023/09/16 09:19:53;;;;;;;3.95;3.45;;;22.60;99.90;;;;;;5073063;28;20036;-41
2023/09/16 09:22:19;;;;;;;6.13;3.83;;;22.70;99.90;;;;;;5075764;28;20047;-45
2023/09/16 09:24:45;;;;;;;12.32;3.20;;;22.80;99.90;;;;;;5072722;28;20403;-41
2023/09/16 09:27:11;;;;;;;6.07;3.40;;;23.00;99.90;;;;;;5073722;28;20024;-41
2023/09/16 09:29:36;;;;;;;3.60;2.85;;;23.20;99.90;;;;;;5074069;28;20028;-40
2023/09/16 09:32:02;;;;;;;3.42;2.92;;;23.20;99.90;;;;;;5060495;28;20075;-40
2023/09/16 09:34:28;;;;;;;2.75;2.20;;;23.30;99.90;;;;;;5055664;28;20095;-40
2023/09/16 09:36:54;;;;;;;4.10;2.60;;;23.10;99.90;;;;;;5055684;28;20082;-42
2023/09/16 09:39:20;;;;;;;2.85;2.50;;;23.00;99.90;;;;;;5074475;28;20399;-46
2023/09/16 09:41:49;;;;;;;3.00;1.98;;;23.10;99.90;;;;;;5073871;28;20046;-41
2023/09/16 09:44:15;;;;;;;3.65;2.33;;;23.20;99.90;;;;;;5073956;28;20020;-42
2023/09/16 09:46:41;;;;;;;4.20;2.15;;;23.40;99.90;;;;;;5075419;28;20020;-41
2023/09/16 09:49:08;;;;;;;3.70;2.17;;;23.60;99.90;;;;;;5075222;28;20043;-39
2023/09/16 09:51:34;;;;;;;;;;;23.70;99.90;;;;;;5074249;28;20404;-40
2023/09/16 09:54:00;;;;;;;6.65;2.85;;;24.00;99.90;;;;;;5075206;28;19995;-40
2023/09/16 09:56:26;;;;;;;3.33;2.53;;;24.20;99.90;;;;;;5075005;28;20113;-39
2023/09/16 09:58:51;;;;;;;2.15;1.85;;;24.40;99.90;;;;;;5073684;28;20389;-52
2023/09/16 10:01:17;;;;;;;3.72;2.30;;;24.60;99.90;;;;;;5075153;28;20477;-54
2023/09/16 10:03:49;;;;;;;2.47;2.05;;;24.60;99.90;;;;;;5062687;28;20029;-53
2023/09/16 10:06:16;;;;;;;2.92;2.17;;;24.60;99.90;;;;;;5073913;28;20381;-52
2023/09/16 10:08:42;;;;;;;3.88;2.63;;;24.50;99.90;;;;;;5074930;28;20412;-56
2023/09/16 10:11:09;;;;;;;7.95;2.80;;;24.20;99.90;;;;;;5074984;28;20512;-52
2023/09/16 10:13:35;;;;;;;7.00;3.10;;;24.00;99.90;;;;;;5074924;28;20068;-53
2023/09/16 10:16:01;;;;;;;2.97;2.58;;;23.80;99.90;;;;;;5073094;28;20469;-54
2023/09/16 10:18:30;;;;;;;7.13;2.50;;;23.70;99.90;;;;;;5075180;28;20489;-52
2023/09/16 10:20:55;;;;;;;4.05;2.35;;;23.60;99.90;;;;;;5074906;28;20020;-54
2023/09/16 10:23:22;;;;;;;3.38;2.00;;;23.60;99.90;;;;;;5073337;28;20078;-53
2023/09/16 10:25:49;;;;;;;3.53;1.90;;;23.80;99.90;;;;;;5073325;28;20036;-52
2023/09/16 10:28:16;;;;;;;;;;;23.90;99.90;;;;;;5075058;28;20497;-54
2023/09/16 10:30:42;;;;;;;3.00;2.38;;;24.00;99.90;;;;;;5074456;28;20000;-56
2023/09/16 10:33:09;;;;;;;5.03;2.30;;;24.00;99.90;;;;;;5072158;28;20543;-53
2023/09/16 10:35:38;;;;;;;2.20;2.00;;;24.00;99.90;;;;;;5072782;28;20115;-54
2023/09/16 10:38:05;;;;;;;2.55;2.25;;;24.10;99.90;;;;;;5070413;28;20461;-53
2023/09/16 10:40:32;;;;;;;3.05;2.67;;;24.30;99.90;;;;;;5072462;28;20024;-47
2023/09/16 10:43:00;;;;;;;7.57;2.90;;;24.40;99.90;;;;;;5071530;28;20028;-53
2023/09/16 10:45:26;;;;;;;2.88;2.50;;;24.50;99.90;;;;;;5062815;28;20262;-53
2023/09/16 10:47:53;;;;;;;2.60;2.40;;;24.50;99.90;;;;;;5074025;28;20032;-52
2023/09/16 10:50:24;;;;;;;3.13;2.17;;;24.50;99.90;;;;;;5070403;28;20386;-54
2023/09/16 10:53:15;;;;;;;5.35;2.63;;;24.50;99.90;;;;;;5062832;28;20038;-40
2023/09/16 10:55:48;;;;;;;6.00;2.22;;;24.50;99.90;;;;;;5070304;28;20044;-41
2023/09/16 10:58:56;;;;;;;3.35;1.98;;;24.50;99.90;;;;;;5074014;28;20037;-40
2023/09/16 11:01:28;;;;;;;2.78;1.80;;;24.40;99.90;;;;;;5056277;28;20032;-53
2023/09/16 11:04:02;;;;;;;2.30;2.10;;;24.40;99.90;;;;;;5062790;28;20070;-54
2023/09/16 11:06:28;;;;;;;3.35;2.30;;;24.30;99.90;;;;;;5061858;28;20021;-55
2023/09/16 11:08:54;;;;;;;2.58;2.00;;;24.30;99.90;;;;;;5069609;28;20481;-50
2023/09/16 11:11:20;;;;;;;2.95;2.05;;;24.30;99.90;;;;;;5068673;28;20495;-52
2023/09/16 11:13:47;;;;;;;4.15;2.05;;;24.30;99.90;;;;;;5058326;28;20029;-53
2023/09/16 11:16:13;;;;;;;4.43;2.67;;;24.40;99.90;;;;;;5059877;28;20488;-51
2023/09/16 11:18:42;;;;;;;4.97;2.17;;;24.50;99.90;;;;;;5069723;28;20024;-53
2023/09/16 11:21:08;;;;;;;3.03;2.28;;;24.80;99.90;;;;;;5071797;28;20052;-53
2023/09/16 11:23:36;;;;;;;4.05;2.30;;;25.30;99.90;;;;;;5071050;28;20028;-53
2023/09/16 11:26:03;;;;;;;3.72;2.50;;;25.60;99.90;;;;;;5069523;28;20020;-52
2023/09/16 11:28:29;;;;;;;3.30;2.05;;;25.80;99.90;;;;;;5072006;28;20115;-54
2023/09/16 11:30:59;;;;;;;4.90;2.25;;;26.10;99.90;;;;;;5073377;28;20104;-54
2023/09/16 11:33:38;;;;;;;3.42;2.42;;;26.30;99.90;;;;;;5072351;28;20031;-53
2023/09/16 11:36:13;;;;;;;3.60;2.03;;;26.40;99.90;;;;;;5069394;28;20112;-50
2023/09/16 11:38:53;;;;;;;1.52;1.40;;;26.60;99.90;;;;;;5071308;28;20485;-53
2023/09/16 11:41:19;;;;;;;4.55;2.22;;;26.70;99.90;;;;;;5070929;28;20066;-54
2023/09/16 11:43:45;;;;;;;6.25;2.22;;;26.50;99.90;;;;;;5071034;28;20104;-45
2023/09/16 11:46:12;;;;;;;1.70;1.40;;;26.30;99.90;;;;;;5069954;28;20017;-55
2023/09/16 11:48:52;;;;;;;3.65;2.13;;;26.20;99.90;;;;;;5069992;28;20043;-52
2023/09/16 11:51:18;;;;;;;1.50;1.40;;;25.90;99.90;;;;;;5073133;28;20033;-50
2023/09/16 11:53:45;;;;;;;2.17;2.05;;;25.90;99.90;;;;;;5071171;28;20399;-53
2023/09/16 11:56:11;;;;;;;5.03;2.38;;;25.80;99.90;;;;;;5072156;28;20033;-51
2023/09/16 11:58:37;;;;;;;2.42;2.00;;;26.00;99.90;;;;;;5071314;28;20028;-54
2023/09/16 12:01:03;;;;;;;4.00;1.77;;;26.20;99.90;;;;;;5068924;28;20073;-53
2023/09/16 12:03:29;;;;;;;2.60;1.95;;;26.40;99.90;;;;;;5066591;28;20100;-53
2023/09/16 12:05:55;;;;;;;6.43;2.13;;;26.60;99.90;;;;;;5071638;28;20099;-53
2023/09/16 12:08:23;;;;;;;3.22;1.50;;;26.80;99.90;;;;;;5072838;28;20154;-53
2023/09/16 12:10:49;;;;;;;3.95;2.17;;;27.00;99.90;;;;;;5070880;28;20044;-53
2023/09/16 12:13:35;;;;;;;1.75;1.50;;;27.20;99.90;;;;;;5068793;28;20489;-53
2023/09/16 12:16:01;;;;;;;3.30;1.83;;;27.20;99.90;;;;;;5070865;28;20024;-52
2023/09/16 12:18:26;;;;;;;4.05;2.00;;;27.20;99.60;;;;;;5070699;28;20031;-41
2023/09/16 12:20:52;;;;;;;2.67;1.65;;;27.20;99.00;;;;;;5072745;28;20560;-41
2023/09/16 12:23:18;;;;;;;3.40;2.00;;;27.20;99.50;;;;;;5069418;28;20032;-40
2023/09/16 12:25:45;;;;;;;3.53;2.03;;;26.90;99.90;;;;;;5071375;28;20033;-38
2023/09/16 12:28:24;;;;;;;5.63;1.70;;;26.80;99.90;;;;;;5071128;28;20063;-39
2023/09/16 12:30:52;;;;;;;3.42;2.03;;;26.70;99.80;;;;;;5067707;28;20504;-40
2023/09/16 12:33:21;;;;;;;3.13;1.80;;;26.50;99.90;;;;;;5069575;28;20385;-39
2023/09/16 12:35:49;;;;;;;3.72;1.65;;;26.50;99.90;;;;;;5072542;28;20025;-40
2023/09/16 12:38:15;;;;;;;4.43;1.80;;;26.60;99.90;;;;;;5072451;28;20082;-40
2023/09/16 12:40:41;;;;;;;5.32;3.30;;;26.60;99.90;;;;;;5071655;28;20030;-48
2023/09/16 12:43:07;;;;;;;2.33;1.63;;;26.70;99.90;;;;;;5068634;28;20523;-41
2023/09/16 12:45:35;;;;;;;2.13;1.92;;;26.80;99.90;;;;;;5066186;28;20045;-42